Terminal Aerodrome Forecast
Issued by NWS Blacksburg, VA

Home | Current Version | Previous Version | Text Only | Print | Product List | Glossary On
Versions: 1 2 3 4 5 6 7 8 9 10 11 12 13 14 15 16 17 18 19 20 21 22 23 24 25 26 27 28
000
FTUS41 KRNK 022329
TAFLYH
TAF
KLYH 022329Z 0300/0324 09004KT P6SM FEW110
     FM030700 00000KT 6SM BR OVC018
     FM031000 00000KT 5SM BR OVC008
     FM031500 07005KT 6SM -SHRA OVC015
     FM031700 12003KT P6SM SCT028 BKN035
     FM032200 09004KT P6SM -SHRA VCTS BKN035CB=

USA.gov is the U.S. government's official web portal to all federal, state and local government web resources and services.